Time;durP1;ratioP1;P1;durP2;ratioP2;P2;SDS_P1;SDS_P2;PMS_P1;PMS_P2;Temp;Humidity;BMP_temperature;BMP_pressure;BME280_temperature;BME280_humidity;BME280_pressure;Samples;Min_cycle;Max_cycle;Signal;HPM_P1;HPM_P2
2024/02/18 00:00:04;;;;;;;2.60;2.33;;;22.40;65.00;;;;;;5115173;28;20439;-81
2024/02/18 00:02:31;;;;;;;2.67;2.30;;;22.30;64.90;;;;;;5115098;28;20582;-92
2024/02/18 00:04:59;;;;;;;2.67;2.07;;;22.30;64.90;;;;;;5115236;28;20720;-92
2024/02/18 00:07:26;;;;;;;2.37;1.80;;;22.30;65.00;;;;;;5114984;28;20510;-81
2024/02/18 00:09:53;;;;;;;3.03;2.47;;;22.30;64.90;;;;;;5114659;28;20440;-81
2024/02/18 00:12:22;;;;;;;2.53;1.83;;;22.30;65.00;;;;;;5115068;28;20500;-90
2024/02/18 00:14:49;;;;;;;2.00;1.80;;;22.30;65.00;;;;;;5114914;28;20438;-81
2024/02/18 00:17:17;;;;;;;2.57;1.80;;;22.30;65.00;;;;;;5115059;28;20441;-81
2024/02/18 00:19:44;;;;;;;2.10;1.80;;;22.30;65.00;;;;;;5114391;28;20545;-80
2024/02/18 00:22:11;;;;;;;3.03;1.70;;;22.30;65.00;;;;;;5114663;28;20478;-83
2024/02/18 00:24:37;;;;;;;2.17;1.90;;;22.20;64.90;;;;;;5114562;28;20439;-88
2024/02/18 00:27:05;;;;;;;3.40;2.13;;;22.20;65.00;;;;;;5114309;28;20488;-81
2024/02/18 00:29:32;;;;;;;2.53;2.13;;;22.20;64.90;;;;;;5113989;28;20526;-81
2024/02/18 00:31:58;;;;;;;2.33;1.87;;;22.20;65.00;;;;;;5114560;28;20456;-81
2024/02/18 00:34:28;;;;;;;3.00;1.77;;;22.20;65.00;;;;;;5114306;28;20809;-91
2024/02/18 00:36:55;;;;;;;2.00;1.70;;;22.20;65.00;;;;;;5114348;28;20445;-81
2024/02/18 00:39:22;;;;;;;2.80;2.03;;;22.20;65.00;;;;;;5113972;28;20438;-81
2024/02/18 00:41:48;;;;;;;2.73;2.20;;;22.20;65.00;;;;;;5113993;28;20470;-80
2024/02/18 00:44:15;;;;;;;2.13;1.93;;;22.20;65.00;;;;;;5114409;28;20434;-90
2024/02/18 00:46:42;;;;;;;3.63;2.40;;;22.20;65.00;;;;;;5114192;28;20434;-81
2024/02/18 00:49:09;;;;;;;2.30;1.80;;;22.20;65.00;;;;;;5113575;28;20431;-81
2024/02/18 00:51:37;;;;;;;2.20;1.90;;;22.20;65.00;;;;;;5114012;28;20481;-90
2024/02/18 00:54:04;;;;;;;2.57;2.10;;;22.20;65.10;;;;;;5113967;28;20441;-81
2024/02/18 00:56:30;;;;;;;3.50;1.93;;;22.20;65.10;;;;;;5114132;28;20570;-81
2024/02/18 00:58:57;;;;;;;3.80;2.27;;;22.20;65.10;;;;;;5113916;28;20434;-81
2024/02/18 01:01:24;;;;;;;2.10;1.77;;;22.10;65.00;;;;;;5113974;28;20928;-81
2024/02/18 01:03:51;;;;;;;2.10;1.67;;;22.20;65.10;;;;;;5113912;28;20486;-81
2024/02/18 01:06:17;;;;;;;2.03;1.83;;;22.20;65.10;;;;;;5113742;28;20442;-81
2024/02/18 01:08:45;;;;;;;2.27;2.00;;;22.10;64.90;;;;;;5113843;28;20441;-81
2024/02/18 01:11:12;;;;;;;2.00;1.53;;;22.10;65.10;;;;;;5113447;28;20434;-81
2024/02/18 01:13:39;;;;;;;2.67;1.83;;;22.10;65.00;;;;;;5113693;28;20465;-81
2024/02/18 01:16:06;;;;;;;2.60;1.80;;;22.10;65.00;;;;;;5113406;28;20483;-81
2024/02/18 01:18:39;;;;;;;2.63;2.00;;;22.10;65.00;;;;;;5113544;28;20445;-81
2024/02/18 01:21:06;;;;;;;2.37;2.00;;;22.10;65.00;;;;;;5113039;28;20794;-82
2024/02/18 01:23:32;;;;;;;1.93;1.60;;;22.10;65.00;;;;;;5113334;28;20482;-81
2024/02/18 01:26:00;;;;;;;2.60;1.73;;;22.10;65.10;;;;;;5113430;28;20434;-81
2024/02/18 01:28:27;;;;;;;3.13;1.93;;;22.10;65.00;;;;;;5113277;28;20461;-81
2024/02/18 01:30:54;;;;;;;2.20;1.90;;;22.10;65.00;;;;;;5113504;28;20451;-81
2024/02/18 01:33:23;;;;;;;2.20;2.00;;;22.10;65.00;;;;;;5113297;28;20440;-81
2024/02/18 01:35:49;;;;;;;2.43;1.93;;;22.10;65.00;;;;;;5112386;28;20945;-81
2024/02/18 01:38:16;;;;;;;2.80;1.67;;;22.10;65.00;;;;;;5112020;28;20439;-81
2024/02/18 01:40:43;;;;;;;2.30;2.10;;;22.10;65.00;;;;;;5112543;28;20980;-80
2024/02/18 01:43:13;;;;;;;2.70;2.03;;;22.10;65.00;;;;;;5112744;28;20482;-81
2024/02/18 01:45:39;;;;;;;2.20;1.77;;;22.10;65.80;;;;;;5113064;28;20968;-81
2024/02/18 01:48:07;;;;;;;2.10;1.90;;;22.10;64.90;;;;;;5113069;28;20434;-81
2024/02/18 01:50:34;;;;;;;2.07;1.53;;;22.10;64.90;;;;;;5113373;28;20493;-80
2024/02/18 01:53:00;;;;;;;2.27;1.83;;;22.10;64.90;;;;;;5113592;28;20439;-80
2024/02/18 01:55:27;;;;;;;2.20;1.77;;;22.10;64.90;;;;;;5113753;28;20934;-80
2024/02/18 01:57:54;;;;;;;2.30;1.77;;;22.10;64.90;;;;;;5113969;28;20851;-81
2024/02/18 02:00:23;;;;;;;3.20;1.97;;;22.10;64.90;;;;;;5113593;28;20434;-81
2024/02/18 02:02:50;;;;;;;2.30;1.90;;;22.10;64.90;;;;;;5115885;28;20477;-81
2024/02/18 02:05:20;;;;;;;2.33;1.70;;;22.10;64.90;;;;;;5117194;28;20442;-92
2024/02/18 02:07:49;;;;;;;2.20;1.70;;;22.10;64.90;;;;;;5117480;28;20534;-80
2024/02/18 02:10:16;;;;;;;4.57;1.80;;;22.10;64.90;;;;;;5117341;28;20439;-81
2024/02/18 02:12:43;;;;;;;2.27;1.77;;;22.10;64.90;;;;;;5117317;28;20521;-81
2024/02/18 02:15:11;;;;;;;2.60;1.90;;;22.10;64.90;;;;;;5116955;28;20438;-81
2024/02/18 02:17:40;;;;;;;3.30;1.70;;;22.10;64.80;;;;;;5116720;28;20441;-81
2024/02/18 02:20:09;;;;;;;1.80;1.40;;;22.10;64.80;;;;;;5116710;28;20969;-81
2024/02/18 02:22:35;;;;;;;2.60;1.77;;;22.10;64.70;;;;;;5116736;28;20485;-81
2024/02/18 02:25:02;;;;;;;2.70;1.93;;;22.10;64.70;;;;;;5116775;28;20430;-81
2024/02/18 02:27:34;;;;;;;2.00;1.67;;;22.10;64.70;;;;;;5116698;28;20437;-81
2024/02/18 02:30:03;;;;;;;1.70;1.40;;;22.20;64.70;;;;;;5116729;28;20435;-80
2024/02/18 02:32:31;;;;;;;2.10;1.50;;;22.10;64.70;;;;;;5116666;28;20438;-84
2024/02/18 02:34:58;;;;;;;2.40;1.83;;;22.10;64.70;;;;;;5116983;28;20442;-80
2024/02/18 02:37:25;;;;;;;2.53;2.10;;;22.20;64.70;;;;;;5117137;28;20430;-81
2024/02/18 02:39:52;;;;;;;2.10;1.60;;;22.10;64.60;;;;;;5116702;28;20466;-88
2024/02/18 02:42:19;;;;;;;3.17;2.13;;;22.10;64.50;;;;;;5116472;28;20442;-81
2024/02/18 02:44:46;;;;;;;2.60;2.00;;;22.20;64.60;;;;;;5116668;28;20469;-81
2024/02/18 02:47:14;;;;;;;1.97;1.70;;;22.20;64.60;;;;;;5116587;28;20474;-80
2024/02/18 02:49:40;;;;;;;2.50;1.60;;;22.20;64.50;;;;;;5116500;28;20815;-81
2024/02/18 02:52:07;;;;;;;2.00;1.60;;;22.20;64.50;;;;;;5116383;28;20990;-86
2024/02/18 02:54:35;;;;;;;2.83;1.83;;;22.20;64.50;;;;;;5116676;28;20438;-91
2024/02/18 02:57:02;;;;;;;1.93;1.60;;;22.20;64.40;;;;;;5116720;28;20443;-80
2024/02/18 02:59:28;;;;;;;2.40;1.80;;;22.20;64.40;;;;;;5116407;28;20431;-91
2024/02/18 03:01:55;;;;;;;1.90;1.50;;;22.20;64.40;;;;;;5116177;28;20465;-81
2024/02/18 03:04:23;;;;;;;2.00;1.50;;;22.20;64.40;;;;;;5116056;28;20853;-81
2024/02/18 03:06:50;;;;;;;2.00;1.80;;;22.20;64.40;;;;;;5115900;28;20913;-81
2024/02/18 03:09:17;;;;;;;2.17;1.83;;;22.20;64.30;;;;;;5116004;28;20443;-91
2024/02/18 03:11:44;;;;;;;2.27;1.50;;;22.20;64.30;;;;;;5115915;28;20438;-81
2024/02/18 03:14:10;;;;;;;2.10;1.60;;;22.20;64.30;;;;;;5115633;28;20501;-91
2024/02/18 03:16:37;;;;;;;1.80;1.40;;;22.20;64.30;;;;;;5116140;28;20526;-81
2024/02/18 03:19:04;;;;;;;2.30;1.90;;;22.20;64.40;;;;;;5116106;28;20434;-82
2024/02/18 03:21:33;;;;;;;2.23;1.60;;;22.20;64.30;;;;;;5116176;28;21243;-82
2024/02/18 03:24:00;;;;;;;2.00;1.40;;;22.20;65.10;;;;;;5116378;28;20837;-86
2024/02/18 03:26:27;;;;;;;1.77;1.37;;;22.20;64.20;;;;;;5116504;28;20466;-81
2024/02/18 03:28:53;;;;;;;2.00;1.57;;;22.20;64.20;;;;;;5116566;28;20446;-80
2024/02/18 03:31:20;;;;;;;2.27;1.50;;;22.20;64.20;;;;;;5116128;28;20435;-81
2024/02/18 03:33:47;;;;;;;1.90;1.50;;;22.20;65.10;;;;;;5115510;28;20533;-81
2024/02/18 03:36:14;;;;;;;2.10;1.50;;;22.30;64.30;;;;;;5115012;28;20443;-81
2024/02/18 03:38:42;;;;;;;1.70;1.33;;;22.20;64.20;;;;;;5115642;28;20443;-81
2024/02/18 03:41:09;;;;;;;2.50;1.73;;;22.20;64.20;;;;;;5116953;28;20488;-80
2024/02/18 03:43:36;;;;;;;1.67;1.40;;;22.20;64.10;;;;;;5116291;28;20482;-80
2024/02/18 03:46:03;;;;;;;4.50;1.70;;;22.20;64.10;;;;;;5116545;28;20440;-80
2024/02/18 03:48:29;;;;;;;1.93;1.47;;;22.30;64.20;;;;;;5115560;28;20534;-81
2024/02/18 03:50:56;;;;;;;2.40;1.57;;;22.20;64.00;;;;;;5115010;28;20462;-81
2024/02/18 03:53:23;;;;;;;1.60;1.10;;;22.30;64.20;;;;;;5115382;28;20430;-80
2024/02/18 03:55:51;;;;;;;2.20;1.57;;;22.30;64.00;;;;;;5115231;28;20439;-80
2024/02/18 03:58:18;;;;;;;1.90;1.50;;;22.30;64.10;;;;;;5115299;28;20439;-80
2024/02/18 04:00:46;;;;;;;1.90;1.50;;;22.30;64.00;;;;;;5115129;28;20435;-81
2024/02/18 04:03:14;;;;;;;1.70;1.20;;;22.30;64.00;;;;;;5114849;28;20531;-80
2024/02/18 04:05:40;;;;;;;1.70;1.40;;;22.30;64.00;;;;;;5114987;28;20438;-80
2024/02/18 04:08:07;;;;;;;2.47;1.70;;;22.30;63.90;;;;;;5114904;28;20434;-80
2024/02/18 04:10:34;;;;;;;2.27;1.57;;;22.30;63.90;;;;;;5114550;28;20439;-80
2024/02/18 04:13:02;;;;;;;1.63;1.40;;;22.30;64.00;;;;;;5114644;28;20447;-81
2024/02/18 04:15:29;;;;;;;2.03;1.40;;;22.30;63.90;;;;;;5114432;28;20971;-80
2024/02/18 04:17:56;;;;;;;2.20;1.30;;;22.20;63.80;;;;;;5114398;28;20788;-80
2024/02/18 04:20:23;;;;;;;2.67;1.73;;;22.30;63.90;;;;;;5114619;28;20843;-80
2024/02/18 04:22:49;;;;;;;2.23;1.43;;;22.30;63.90;;;;;;5114430;28;20948;-83
2024/02/18 04:25:16;;;;;;;2.00;1.53;;;22.20;63.80;;;;;;5113350;28;20439;-80
2024/02/18 04:27:43;;;;;;;2.10;1.57;;;22.30;63.90;;;;;;5114352;28;20437;-80
2024/02/18 04:30:12;;;;;;;1.87;1.50;;;22.20;63.80;;;;;;5114399;28;20442;-80
2024/02/18 04:32:38;;;;;;;1.70;1.20;;;22.30;64.00;;;;;;5114306;28;20461;-81
2024/02/18 04:35:05;;;;;;;1.77;1.37;;;22.30;63.90;;;;;;5114264;28;20434;-80
2024/02/18 04:37:32;;;;;;;1.83;1.17;;;22.20;63.90;;;;;;5114104;28;20449;-81
2024/02/18 04:39:59;;;;;;;2.40;1.87;;;22.30;63.90;;;;;;5113851;28;20470;-81
2024/02/18 04:42:26;;;;;;;1.70;1.30;;;22.30;63.90;;;;;;5114044;28;20443;-80
2024/02/18 04:44:53;;;;;;;2.20;1.70;;;22.20;63.70;;;;;;5114009;28;20689;-81
2024/02/18 04:47:22;;;;;;;2.20;1.83;;;22.20;63.70;;;;;;5114186;28;20442;-89
2024/02/18 04:49:49;;;;;;;1.80;1.20;;;22.20;63.70;;;;;;5114155;28;20914;-80
2024/02/18 04:52:16;;;;;;;2.10;1.50;;;22.30;63.80;;;;;;5113977;28;20807;-80
2024/02/18 04:54:42;;;;;;;1.93;1.37;;;22.30;63.80;;;;;;5113758;28;20445;-80
2024/02/18 04:57:09;;;;;;;2.03;1.60;;;22.30;63.80;;;;;;5114124;28;20448;-81
2024/02/18 04:59:36;;;;;;;1.63;1.40;;;22.30;63.80;;;;;;5113988;28;20430;-82
2024/02/18 05:02:03;;;;;;;1.90;1.40;;;22.30;63.70;;;;;;5114154;28;20437;-80
2024/02/18 05:04:31;;;;;;;1.90;1.40;;;22.30;63.70;;;;;;5114145;28;20486;-81
2024/02/18 05:06:58;;;;;;;1.97;1.33;;;22.30;64.50;;;;;;5113802;28;20435;-80
2024/02/18 05:09:25;;;;;;;2.40;1.50;;;22.30;63.60;;;;;;5113723;28;20803;-79
2024/02/18 05:11:52;;;;;;;2.03;1.60;;;22.30;63.60;;;;;;5116890;28;20446;-81
2024/02/18 05:14:19;;;;;;;1.80;1.50;;;22.30;63.50;;;;;;5116465;28;20495;-80
2024/02/18 05:16:46;;;;;;;2.23;1.30;;;22.30;63.40;;;;;;5114324;28;20442;-81
2024/02/18 05:19:13;;;;;;;2.30;1.77;;;22.30;63.40;;;;;;5113247;28;20504;-83
2024/02/18 05:21:42;;;;;;;2.10;1.70;;;22.30;63.40;;;;;;5114035;28;20967;-81
2024/02/18 05:24:09;;;;;;;2.10;1.80;;;22.40;63.40;;;;;;5113636;28;20884;-81
2024/02/18 05:26:36;;;;;;;1.80;1.27;;;22.30;63.30;;;;;;5113654;28;20438;-83
2024/02/18 05:29:03;;;;;;;1.80;1.50;;;22.40;63.30;;;;;;5113250;28;20447;-81
2024/02/18 05:31:30;;;;;;;2.23;1.40;;;22.40;63.30;;;;;;5113451;28;20449;-81
2024/02/18 05:33:57;;;;;;;1.70;1.20;;;22.40;63.20;;;;;;5113720;28;20460;-81
2024/02/18 05:36:24;;;;;;;2.53;1.57;;;22.40;63.20;;;;;;5133243;27;20445;-87
2024/02/18 05:38:52;;;;;;;1.60;1.10;;;22.40;63.20;;;;;;5132571;27;20442;-82
2024/02/18 05:41:19;;;;;;;2.57;1.40;;;22.40;63.20;;;;;;5133590;28;20505;-82
2024/02/18 05:43:46;;;;;;;2.23;1.50;;;22.50;63.30;;;;;;5133852;28;20491;-80
2024/02/18 05:46:12;;;;;;;2.20;1.70;;;22.40;63.10;;;;;;5133759;28;20444;-80
2024/02/18 05:48:40;;;;;;;2.40;1.67;;;22.40;63.10;;;;;;5134436;28;20437;-81
2024/02/18 05:51:06;;;;;;;2.53;1.43;;;22.50;63.10;;;;;;5133824;28;20460;-81
2024/02/18 05:53:33;;;;;;;1.80;1.50;;;22.50;63.10;;;;;;5133708;28;20437;-82
2024/02/18 05:56:02;;;;;;;2.00;1.60;;;22.40;62.90;;;;;;5133812;28;20438;-80
2024/02/18 05:58:28;;;;;;;2.27;1.57;;;22.50;63.00;;;;;;5133833;28;20434;-80
2024/02/18 06:00:55;;;;;;;2.30;1.90;;;22.50;63.00;;;;;;5133586;28;20434;-81
2024/02/18 06:03:22;;;;;;;2.00;1.50;;;22.50;62.90;;;;;;5133711;28;20440;-81
2024/02/18 06:05:49;;;;;;;1.67;1.37;;;22.50;63.00;;;;;;5133724;28;20434;-82
2024/02/18 06:08:15;;;;;;;1.80;1.43;;;22.50;62.90;;;;;;5133519;28;20445;-81
2024/02/18 06:10:42;;;;;;;2.03;1.30;;;22.50;62.90;;;;;;5133558;28;20438;-82
2024/02/18 06:13:10;;;;;;;2.13;1.37;;;22.50;62.90;;;;;;5133630;28;20429;-81
2024/02/18 06:15:37;;;;;;;2.00;1.60;;;22.40;62.90;;;;;;5133727;28;20434;-80
2024/02/18 06:18:05;;;;;;;1.80;1.37;;;22.50;63.00;;;;;;5133664;28;20433;-90
2024/02/18 06:20:32;;;;;;;2.20;1.60;;;22.50;62.90;;;;;;5133438;28;20481;-81
2024/02/18 06:22:58;;;;;;;1.80;1.37;;;22.40;62.80;;;;;;5133611;28;20791;-81
2024/02/18 06:25:27;;;;;;;2.00;1.53;;;22.40;62.80;;;;;;5133210;28;20485;-91
2024/02/18 06:27:53;;;;;;;2.10;1.80;;;22.40;62.80;;;;;;5133338;28;20444;-80
2024/02/18 06:30:22;;;;;;;2.07;1.30;;;22.40;62.80;;;;;;5133553;28;20429;-90
2024/02/18 06:32:48;;;;;;;2.10;1.50;;;22.50;62.80;;;;;;5133668;28;20449;-92
2024/02/18 06:35:15;;;;;;;1.90;1.30;;;22.50;62.80;;;;;;5133632;28;20473;-82
2024/02/18 06:37:43;;;;;;;1.87;1.43;;;22.50;63.70;;;;;;5133788;28;20441;-82
2024/02/18 06:40:11;;;;;;;2.10;1.50;;;22.50;62.80;;;;;;5133058;28;20534;-81
2024/02/18 06:42:38;;;;;;;2.10;1.70;;;22.50;62.80;;;;;;5133563;28;20953;-82
2024/02/18 06:45:05;;;;;;;2.20;1.90;;;22.50;62.70;;;;;;5133918;28;20511;-84
2024/02/18 06:47:34;;;;;;;1.90;1.47;;;22.50;62.70;;;;;;5133633;27;20440;-81
2024/02/18 06:50:03;;;;;;;1.87;1.50;;;22.50;62.70;;;;;;5137371;27;20475;-81
2024/02/18 06:52:30;;;;;;;1.90;1.30;;;22.50;62.70;;;;;;5138191;27;20445;-82
2024/02/18 06:54:59;;;;;;;1.90;1.60;;;22.50;62.60;;;;;;5137384;27;20780;-82
2024/02/18 06:57:28;;;;;;;2.40;1.50;;;22.50;62.60;;;;;;5137083;27;20440;-81
2024/02/18 06:59:55;;;;;;;1.80;1.30;;;22.60;62.60;;;;;;5138966;27;20927;-81
2024/02/18 07:02:22;;;;;;;3.13;1.50;;;22.50;62.50;;;;;;5137416;27;21244;-81
2024/02/18 07:04:50;;;;;;;1.93;1.63;;;22.60;62.60;;;;;;5136257;27;20979;-81
2024/02/18 07:07:17;;;;;;;1.80;1.30;;;22.50;62.40;;;;;;5137160;27;20442;-88
2024/02/18 07:09:47;;;;;;;1.60;1.20;;;22.60;62.40;;;;;;5137727;27;20433;-82
2024/02/18 07:12:14;;;;;;;1.90;1.53;;;22.50;62.40;;;;;;5136881;27;20973;-86
2024/02/18 07:14:40;;;;;;;1.70;1.20;;;22.60;62.40;;;;;;5137055;27;20430;-93
2024/02/18 07:17:07;;;;;;;2.00;1.40;;;22.60;62.40;;;;;;5136852;27;20434;-82
2024/02/18 07:19:37;;;;;;;1.70;1.27;;;22.60;62.40;;;;;;5137711;27;20458;-81
2024/02/18 07:22:06;;;;;;;2.20;1.30;;;22.60;62.40;;;;;;5136405;27;20440;-80
2024/02/18 07:24:33;;;;;;;2.00;1.60;;;22.60;62.40;;;;;;5137246;27;20481;-89
2024/02/18 07:26:59;;;;;;;1.97;1.47;;;22.60;62.30;;;;;;5136689;27;20803;-81
2024/02/18 07:29:26;;;;;;;2.10;1.50;;;22.60;62.30;;;;;;5136843;27;20442;-82
2024/02/18 07:31:53;;;;;;;1.80;1.30;;;22.60;62.30;;;;;;5136733;27;21072;-81
2024/02/18 07:34:20;;;;;;;1.60;1.13;;;22.60;62.20;;;;;;5136157;27;20442;-81
2024/02/18 07:36:47;;;;;;;2.20;1.40;;;22.60;62.20;;;;;;5136177;27;20444;-82
2024/02/18 07:39:16;;;;;;;1.70;1.10;;;22.60;62.30;;;;;;5136236;27;20483;-82
2024/02/18 07:41:42;;;;;;;1.70;1.20;;;22.60;62.20;;;;;;5136063;27;20462;-82
2024/02/18 07:44:09;;;;;;;1.80;1.23;;;22.60;62.20;;;;;;5135708;27;21018;-84
2024/02/18 07:46:37;;;;;;;1.77;1.23;;;22.60;62.10;;;;;;5135954;27;20436;-81
2024/02/18 07:49:04;;;;;;;1.73;1.27;;;22.60;62.20;;;;;;5136239;27;20434;-81
2024/02/18 07:51:31;;;;;;;2.10;1.50;;;22.60;62.10;;;;;;5136188;27;20429;-82
2024/02/18 07:53:58;;;;;;;2.27;1.43;;;22.70;62.20;;;;;;5135868;27;20434;-82
2024/02/18 07:56:26;;;;;;;1.67;1.27;;;22.70;62.20;;;;;;5136669;27;20447;-91
2024/02/18 07:58:53;;;;;;;1.80;1.30;;;22.70;62.20;;;;;;5136450;27;20936;-88
2024/02/18 08:01:19;;;;;;;2.10;1.23;;;22.70;62.30;;;;;;5136377;27;20784;-88
2024/02/18 08:03:46;;;;;;;2.00;1.30;;;22.70;62.20;;;;;;5136438;27;20438;-82
2024/02/18 08:06:13;;;;;;;1.67;1.20;;;22.70;62.20;;;;;;5136252;27;20434;-82
2024/02/18 08:08:40;;;;;;;1.63;1.30;;;22.70;62.20;;;;;;5136058;27;20440;-82
2024/02/18 08:11:07;;;;;;;1.70;1.30;;;22.70;62.20;;;;;;5138169;27;20442;-82
2024/02/18 08:13:35;;;;;;;1.60;1.17;;;22.70;62.10;;;;;;5154025;27;20501;-82
2024/02/18 08:16:03;;;;;;;1.63;1.30;;;22.70;62.20;;;;;;5152442;27;20419;-81
2024/02/18 08:18:30;;;;;;;1.93;1.73;;;22.70;62.30;;;;;;5139451;27;20522;-83
2024/02/18 08:20:56;;;;;;;1.70;1.20;;;22.70;62.30;;;;;;5117340;28;20455;-84
2024/02/18 08:23:23;;;;;;;1.90;1.30;;;22.70;62.30;;;;;;5116313;28;20439;-85
2024/02/18 08:25:50;;;;;;;2.40;1.10;;;22.70;62.40;;;;;;5114283;28;20481;-82
2024/02/18 08:28:16;;;;;;;2.50;1.57;;;22.70;62.40;;;;;;5116163;28;20448;-84
2024/02/18 08:30:45;;;;;;;1.90;1.20;;;22.70;62.30;;;;;;5117915;28;20449;-82
2024/02/18 08:33:12;;;;;;;2.00;1.20;;;22.70;62.40;;;;;;5115478;28;20439;-80
2024/02/18 08:35:39;;;;;;;4.30;1.47;;;22.70;62.30;;;;;;5115192;28;20438;-91
2024/02/18 08:38:05;;;;;;;3.90;1.70;;;22.70;60.70;;;;;;5114104;28;20445;-82
2024/02/18 08:40:32;;;;;;;3.50;1.77;;;22.70;61.70;;;;;;5113475;28;20470;-83
2024/02/18 08:42:59;;;;;;;2.03;1.40;;;22.70;62.00;;;;;;5113736;28;20439;-91
2024/02/18 08:45:26;;;;;;;4.93;1.50;;;22.80;62.40;;;;;;5113303;28;20490;-82
2024/02/18 08:47:54;;;;;;;2.77;1.43;;;22.80;62.40;;;;;;5113493;28;20445;-82
2024/02/18 08:50:21;;;;;;;2.30;1.60;;;22.70;62.30;;;;;;5114168;28;20466;-84
2024/02/18 08:52:49;;;;;;;2.37;1.43;;;22.70;62.40;;;;;;5114335;28;20854;-82
2024/02/18 08:55:15;;;;;;;5.17;1.40;;;22.70;62.40;;;;;;5114701;28;20508;-82
2024/02/18 08:57:42;;;;;;;2.13;1.10;;;22.70;62.60;;;;;;5114449;28;20473;-82
2024/02/18 09:00:10;;;;;;;2.00;1.50;;;22.70;62.60;;;;;;5114517;28;20435;-81
2024/02/18 09:02:37;;;;;;;3.23;1.50;;;22.70;62.70;;;;;;5114171;28;20519;-82
2024/02/18 09:05:07;;;;;;;5.03;1.60;;;22.70;62.70;;;;;;5114232;28;20482;-81
2024/02/18 09:07:34;;;;;;;2.47;1.20;;;22.70;62.80;;;;;;5114228;28;20434;-82
2024/02/18 09:10:01;;;;;;;1.97;1.20;;;22.80;62.90;;;;;;5113947;28;20439;-82
2024/02/18 09:12:28;;;;;;;5.00;1.70;;;22.70;62.80;;;;;;5113758;28;20442;-81
2024/02/18 09:14:56;;;;;;;3.47;1.63;;;22.70;62.90;;;;;;5113303;28;20439;-81
2024/02/18 09:17:22;;;;;;;2.10;1.40;;;22.70;62.80;;;;;;5114100;28;20791;-82
2024/02/18 09:19:49;;;;;;;3.97;1.40;;;22.70;62.80;;;;;;5113978;28;20447;-80
2024/02/18 09:22:17;;;;;;;2.33;1.50;;;22.80;62.90;;;;;;5113745;28;20796;-81
2024/02/18 09:24:44;;;;;;;3.47;1.43;;;22.70;63.00;;;;;;5113957;28;20916;-81
2024/02/18 09:27:11;;;;;;;2.37;1.50;;;22.70;63.00;;;;;;5114157;28;20797;-90
2024/02/18 09:29:38;;;;;;;2.00;1.30;;;22.70;63.00;;;;;;5113739;28;20445;-81
2024/02/18 09:32:06;;;;;;;2.33;1.27;;;22.70;63.00;;;;;;5114051;28;20439;-81
2024/02/18 09:34:34;;;;;;;4.17;1.70;;;22.70;63.10;;;;;;5113594;28;20525;-82
2024/02/18 09:37:01;;;;;;;1.67;1.20;;;22.80;63.30;;;;;;5113328;28;20439;-81
2024/02/18 09:39:29;;;;;;;3.07;1.60;;;22.70;63.30;;;;;;5113551;27;20435;-78
2024/02/18 09:41:58;;;;;;;3.10;1.43;;;22.70;63.30;;;;;;5124041;27;20450;-83
2024/02/18 09:44:27;;;;;;;4.17;1.60;;;22.70;63.30;;;;;;5112582;28;20960;-78
2024/02/18 09:46:55;;;;;;;2.13;1.20;;;22.70;63.30;;;;;;5112803;28;20446;-79
2024/02/18 09:49:24;;;;;;;4.17;1.20;;;22.70;63.30;;;;;;5122147;28;20823;-81
2024/02/18 09:51:54;;;;;;;3.63;1.70;;;22.70;63.20;;;;;;5127516;28;20445;-92
2024/02/18 09:54:22;;;;;;;2.97;1.50;;;22.70;63.00;;;;;;5134765;28;20881;-82
2024/02/18 09:56:50;;;;;;;4.53;2.70;;;22.70;62.90;;;;;;5133826;28;20434;-82
2024/02/18 09:59:17;;;;;;;2.80;1.33;;;22.70;62.90;;;;;;5134185;28;20444;-83
2024/02/18 10:01:51;;;;;;;4.83;1.30;;;22.80;62.70;;;;;;5133565;28;20441;-82
2024/02/18 10:04:17;;;;;;;7.47;1.37;;;22.80;62.60;;;;;;5132852;28;20438;-81
2024/02/18 10:06:44;;;;;;;6.10;1.57;;;22.70;61.90;;;;;;5133347;28;20484;-85
2024/02/18 10:09:11;;;;;;;3.30;1.70;;;22.70;61.90;;;;;;5133547;28;20464;-80
2024/02/18 10:11:38;;;;;;;2.90;1.50;;;22.70;61.70;;;;;;5132565;28;20799;-79
2024/02/18 10:14:06;;;;;;;3.50;1.40;;;22.70;61.10;;;;;;5131398;28;20442;-80
2024/02/18 10:16:34;;;;;;;4.97;1.60;;;22.80;61.30;;;;;;5132637;28;20446;-78
2024/02/18 10:19:02;;;;;;;3.43;1.17;;;22.70;61.00;;;;;;5133109;28;20507;-90
2024/02/18 10:21:29;;;;;;;2.33;1.40;;;22.70;61.20;;;;;;5133990;27;20441;-84
2024/02/18 10:23:56;;;;;;;1.73;1.13;;;22.70;61.20;;;;;;5136562;27;20426;-80
2024/02/18 10:26:23;;;;;;;2.00;1.17;;;22.70;60.90;;;;;;5137628;27;20488;-90
2024/02/18 10:28:50;;;;;;;2.07;1.20;;;22.70;60.70;;;;;;5137944;27;20448;-88
2024/02/18 10:31:18;;;;;;;2.30;1.40;;;22.80;61.40;;;;;;5142446;27;20452;-91
2024/02/18 10:33:45;;;;;;;2.07;1.30;;;22.80;61.80;;;;;;5145316;27;20432;-96
2024/02/18 10:36:13;;;;;;;2.10;1.20;;;22.80;61.90;;;;;;5122293;27;20445;-82
2024/02/18 10:38:44;;;;;;;2.20;1.23;;;22.80;61.80;;;;;;5138005;27;20448;-92
2024/02/18 10:41:17;;;;;;;2.30;1.40;;;22.80;61.80;;;;;;5137675;27;20542;-81
2024/02/18 10:43:48;;;;;;;3.77;1.70;;;22.80;62.10;;;;;;5138045;27;20439;-81
2024/02/18 10:46:21;;;;;;;2.90;1.30;;;22.80;62.10;;;;;;5137428;27;20485;-87
2024/02/18 10:48:52;;;;;;;3.50;1.20;;;22.80;62.00;;;;;;5137445;27;20524;-82
2024/02/18 10:51:25;;;;;;;4.90;1.20;;;22.80;62.00;;;;;;5137454;27;20426;-93
2024/02/18 10:54:03;;;;;;;3.40;1.03;;;22.80;62.10;;;;;;5138116;27;20430;-86
2024/02/18 10:56:31;;;;;;;3.73;1.20;;;22.80;62.00;;;;;;5137345;27;20434;-82
2024/02/18 10:59:04;;;;;;;1.90;1.30;;;22.80;62.00;;;;;;5137277;27;20437;-93
2024/02/18 11:01:39;;;;;;;4.73;1.40;;;22.80;62.00;;;;;;5137205;27;20438;-80
2024/02/18 11:04:09;;;;;;;1.80;1.20;;;22.80;62.00;;;;;;5136744;27;20809;-80
2024/02/18 11:06:37;;;;;;;2.20;1.10;;;22.80;62.00;;;;;;5136541;27;20495;-81
2024/02/18 11:09:05;;;;;;;2.80;1.27;;;22.80;62.00;;;;;;5136569;27;20433;-80
2024/02/18 11:11:33;;;;;;;2.00;1.30;;;22.90;63.00;;;;;;5136614;27;20818;-92
2024/02/18 11:14:01;;;;;;;4.10;1.40;;;22.90;62.10;;;;;;5136738;27;20790;-84
2024/02/18 11:16:29;;;;;;;1.80;1.10;;;22.80;62.00;;;;;;5136263;27;20437;-82
2024/02/18 11:19:01;;;;;;;2.07;1.20;;;22.80;61.90;;;;;;5136341;27;20469;-82
2024/02/18 11:21:30;;;;;;;1.43;0.87;;;22.80;61.60;;;;;;5136749;27;20425;-82
2024/02/18 11:23:57;;;;;;;2.37;1.17;;;22.90;62.10;;;;;;5136574;27;20434;-83
2024/02/18 11:26:24;;;;;;;2.57;1.50;;;22.80;61.90;;;;;;5136249;27;20489;-81
2024/02/18 11:28:51;;;;;;;2.57;1.13;;;22.80;61.90;;;;;;5136094;27;20924;-80
2024/02/18 11:31:21;;;;;;;1.90;0.90;;;22.80;61.90;;;;;;5136341;27;20457;-81
2024/02/18 11:33:48;;;;;;;3.17;1.27;;;22.80;61.90;;;;;;5135427;27;20449;-82
2024/02/18 11:36:17;;;;;;;1.90;1.23;;;22.90;62.00;;;;;;5135971;27;20434;-82
2024/02/18 11:38:45;;;;;;;2.97;1.13;;;22.80;61.90;;;;;;5136032;27;20495;-82
2024/02/18 11:41:20;;;;;;;2.20;1.10;;;22.80;61.90;;;;;;5135850;27;20469;-82
2024/02/18 11:43:52;;;;;;;1.90;1.17;;;22.90;62.00;;;;;;5135882;27;20437;-81
2024/02/18 11:46:20;;;;;;;2.10;1.40;;;22.90;62.00;;;;;;5136761;27;20813;-81
2024/02/18 11:48:47;;;;;;;2.10;1.17;;;22.80;61.90;;;;;;5136047;27;20468;-82
2024/02/18 11:51:16;;;;;;;1.60;1.00;;;22.80;61.90;;;;;;5136210;27;20438;-82
2024/02/18 11:53:43;;;;;;;1.67;1.00;;;22.90;62.00;;;;;;5136055;27;20451;-81
2024/02/18 11:56:10;;;;;;;2.83;1.20;;;22.90;62.10;;;;;;5135756;27;20612;-82
2024/02/18 11:58:37;;;;;;;4.37;1.13;;;22.90;62.00;;;;;;5135726;27;20932;-82
2024/02/18 12:01:06;;;;;;;2.37;1.33;;;22.90;62.00;;;;;;5135784;27;20468;-82
2024/02/18 12:03:33;;;;;;;2.00;1.30;;;22.90;61.90;;;;;;5135469;27;20931;-82
2024/02/18 12:06:02;;;;;;;3.00;1.00;;;22.90;62.00;;;;;;5135540;27;20485;-81
2024/02/18 12:08:30;;;;;;;3.03;1.20;;;22.80;61.90;;;;;;5135451;27;20452;-83
2024/02/18 12:10:59;;;;;;;1.67;1.10;;;22.80;61.80;;;;;;5135447;27;20434;-82
2024/02/18 12:13:27;;;;;;;4.37;1.67;;;22.90;61.90;;;;;;5135371;27;20437;-81
2024/02/18 12:15:54;;;;;;;4.03;1.23;;;22.90;61.40;;;;;;5135021;27;20440;-81
2024/02/18 12:18:20;;;;;;;1.90;1.23;;;22.90;61.60;;;;;;5135348;27;20515;-90
2024/02/18 12:20:49;;;;;;;5.50;1.10;;;22.90;61.90;;;;;;5135193;27;20433;-81
2024/02/18 12:23:16;;;;;;;4.13;1.77;;;22.80;61.70;;;;;;5134084;27;20800;-81
2024/02/18 12:25:44;;;;;;;3.63;1.47;;;22.80;61.80;;;;;;5133949;27;20477;-81
2024/02/18 12:28:12;;;;;;;1.97;1.23;;;22.80;61.80;;;;;;5134394;27;20436;-81
2024/02/18 12:30:39;;;;;;;2.87;1.30;;;22.80;61.90;;;;;;5122394;27;20438;-81
2024/02/18 12:33:06;;;;;;;2.70;1.10;;;22.90;62.00;;;;;;5114474;28;21054;-79
2024/02/18 12:35:33;;;;;;;3.40;1.60;;;22.80;61.90;;;;;;5130305;27;20442;-80
2024/02/18 12:38:02;;;;;;;4.23;1.40;;;22.90;62.10;;;;;;5134708;27;20442;-83
2024/02/18 12:40:29;;;;;;;2.80;1.27;;;22.90;62.10;;;;;;5134545;27;20533;-83
2024/02/18 12:42:58;;;;;;;2.57;1.30;;;22.90;62.10;;;;;;5136760;27;20508;-81
2024/02/18 12:45:25;;;;;;;3.60;1.33;;;22.90;62.10;;;;;;5142156;27;20434;-80
2024/02/18 12:47:54;;;;;;;3.17;1.13;;;22.90;62.10;;;;;;5141086;27;20438;-80